Pagrindinis puslapis
METAR-TAF:

METAR-TAF

Oro uostai :

Tabukas, Saudo Arabija

platuma: 28-22N, ilguma: 036-36E, Aukštis: 778 m

Dabartinis oras

Ataskaita buvo paskelbta 32 minutes, ne 07:00 UTC
Vėjas 9 kt iš Šiaurės
Temperatūra 7°C
Drėgmė 42%
Slėgis 1027 hPa
Matomumas 10 km arba daugiau
nėra debesų žemiau 1500 m ir nėra kamuolinių lietaus debesų

METAR: OETB 250700Z 36009KT CAVOK 07/M05 Q1027 NOSIG

Laikas: 10:32 (07:32 UTC)

Prognozė

Ataskaita buvo paskelbta 8 valandos ir 32 minutes, ne 23:00 UTC
Prognozė galioja nuo 25 metu 00 UTC su 26 metu 06 UTC
Vėjas 3 kt nuo kintamojo kryptimis
Matomumas: 7000 m
Laikinai
nuo 25 metu 00 UTC su 25 metu 06 UTC
Matomumas: 4000 m
rūkana
Laikinai
nuo 25 metu 02 UTC su 25 metu 05 UTC
Matomumas: 0800 m
rūkas
Tapsmas
nuo 25 metu 06 UTC su 25 metu 08 UTC
Vėjas 12 kt iš Šiaurės

TAF: OETB 242300Z 2500/2606 VRB03KT 7000 NSC TEMPO 2500/2506 4000 BR TEMPO 2502/2505 0800 FG BECMG 2506/2508 36012KT

Orai ataskaitas ir orų prognozės (METAR, TAF).

turimą stotys yra geltonos ir raudonos taškus žemėlapyje.

Perkelti pele per norėdami pamatyti stoties vardą.

Tada spustelėkite, norėdami matyti oro stebėjimo ir prognozės.

Norėdami pakeisti žemėlapį: spustelėkite ant žalios mygtukų su juodo kryžiaus žemyn,; žalią mygtuką su brūkšneliu, jei norite nutolinti; arba žalių rodyklių gretimoms žemėlapius.


METAR-TAF: